Time;durP1;ratioP1;P1;durP2;ratioP2;P2;SDS_P1;SDS_P2;PMS_P1;PMS_P2;Temp;Humidity;BMP_temperature;BMP_pressure;BME280_temperature;BME280_humidity;BME280_pressure;Samples;Min_cycle;Max_cycle;Signal;HPM_P1;HPM_P2
2023/12/30 00:00:21;;;;;;;4.60;2.20;;;;;;;;;;5003595;28;20194;-71
2023/12/30 00:02:49;;;;;;;5.13;1.50;;;;;;;;;;4997502;28;20335;-72
2023/12/30 00:05:15;;;;;;;8.67;1.30;;;;;;;;;;4990470;28;20178;-71
2023/12/30 00:07:40;;;;;;;2.63;1.40;;;;;;;;;;5001540;28;20528;-72
2023/12/30 00:10:06;;;;;;;4.73;1.20;;;;;;;;;;4998803;28;20266;-72
2023/12/30 00:12:31;;;;;;;4.87;1.00;;;;;;;;;;4993979;28;20218;-71
2023/12/30 00:14:56;;;;;;;6.23;1.10;;;;;;;;;;4997298;28;20171;-71
2023/12/30 00:17:22;;;;;;;9.03;1.97;;;;;;;;;;4998140;28;20552;-71
2023/12/30 00:19:47;;;;;;;13.33;2.60;;;;;;;;;;5001443;28;20237;-72
2023/12/30 00:22:12;;;;;;;9.30;1.93;;;;;;;;;;5002515;28;21667;-72
2023/12/30 00:24:37;;;;;;;6.50;1.83;;;;;;;;;;5001512;28;20186;-72
2023/12/30 00:27:03;;;;;;;4.30;1.37;;;;;;;;;;5001887;28;20667;-72
2023/12/30 00:29:28;;;;;;;2.73;1.37;;;;;;;;;;4990641;28;20770;-72
2023/12/30 00:31:53;;;;;;;14.07;1.77;;;;;;;;;;4988226;28;20194;-71
2023/12/30 00:34:18;;;;;;;6.83;1.00;;;;;;;;;;4991420;28;20175;-72
2023/12/30 00:36:44;;;;;;;3.43;1.10;;;;;;;;;;4994473;28;20222;-72
2023/12/30 00:39:09;;;;;;;4.07;1.03;;;;;;;;;;4995200;28;20662;-70
2023/12/30 00:41:34;;;;;;;2.57;1.13;;;;;;;;;;4991588;28;20583;-72
2023/12/30 00:43:59;;;;;;;5.57;1.00;;;;;;;;;;4991683;28;20175;-72
2023/12/30 00:46:24;;;;;;;3.53;1.10;;;;;;;;;;4995530;28;20204;-71
2023/12/30 00:48:50;;;;;;;4.13;1.20;;;;;;;;;;4991633;28;20214;-71
2023/12/30 00:51:15;;;;;;;8.50;1.40;;;;;;;;;;4993043;28;20198;-71
2023/12/30 00:53:40;;;;;;;7.20;1.30;;;;;;;;;;4992660;28;20207;-71
2023/12/30 00:56:06;;;;;;;5.17;1.10;;;;;;;;;;4994153;28;22237;-72
2023/12/30 00:58:31;;;;;;;7.73;1.43;;;;;;;;;;4992032;28;20183;-72
2023/12/30 01:00:57;;;;;;;4.47;0.93;;;;;;;;;;4993221;28;20291;-72
2023/12/30 01:03:22;;;;;;;4.27;1.13;;;;;;;;;;4991174;28;21797;-71
2023/12/30 01:05:48;;;;;;;3.53;1.20;;;;;;;;;;4991199;28;20321;-71
2023/12/30 01:08:13;;;;;;;4.03;1.00;;;;;;;;;;4996315;28;20298;-71
2023/12/30 01:10:38;;;;;;;5.37;1.23;;;;;;;;;;4991760;28;20848;-72
2023/12/30 01:13:05;;;;;;;10.77;2.13;;;;;;;;;;4991381;28;20195;-72
2023/12/30 01:15:30;;;;;;;5.17;1.37;;;;;;;;;;4991578;28;20662;-71
2023/12/30 01:17:56;;;;;;;5.13;1.33;;;;;;;;;;4996468;28;20384;-72
2023/12/30 01:20:21;;;;;;;5.20;1.60;;;;;;;;;;4992583;28;20182;-71
2023/12/30 01:22:46;;;;;;;3.87;1.10;;;;;;;;;;4995883;28;20207;-71
2023/12/30 01:25:11;;;;;;;6.53;1.30;;;;;;;;;;4998696;28;20249;-72
2023/12/30 01:27:36;;;;;;;18.00;1.93;;;;;;;;;;4992010;28;20736;-73
2023/12/30 01:30:02;;;;;;;13.23;1.33;;;;;;;;;;4992796;28;20202;-71
2023/12/30 01:32:27;;;;;;;5.60;1.10;;;;;;;;;;4989572;28;20205;-72
2023/12/30 01:34:52;;;;;;;2.83;1.10;;;;;;;;;;5000495;28;20206;-72
2023/12/30 01:37:18;;;;;;;7.00;1.03;;;;;;;;;;5011918;28;20206;-70
2023/12/30 01:39:43;;;;;;;5.47;0.97;;;;;;;;;;5012699;28;20179;-70
2023/12/30 01:42:08;;;;;;;4.00;1.33;;;;;;;;;;5011605;28;20318;-71
2023/12/30 01:44:33;;;;;;;6.23;1.27;;;;;;;;;;5012235;28;20258;-71
2023/12/30 01:46:59;;;;;;;5.50;0.87;;;;;;;;;;5008659;28;20213;-71
2023/12/30 01:49:24;;;;;;;4.23;1.07;;;;;;;;;;5008497;28;20210;-71
2023/12/30 01:51:50;;;;;;;6.00;1.30;;;;;;;;;;5011639;28;20798;-72
2023/12/30 01:54:20;;;;;;;2.33;1.00;;;;;;;;;;5010707;28;20171;-71
2023/12/30 01:56:45;;;;;;;10.23;1.40;;;;;;;;;;5009510;28;20261;-72
2023/12/30 01:59:11;;;;;;;3.27;1.20;;;;;;;;;;5024833;28;20622;-71
2023/12/30 02:01:36;;;;;;;5.77;1.10;;;;;;;;;;5010768;28;20206;-71
2023/12/30 02:04:02;;;;;;;3.70;1.00;;;;;;;;;;5007942;28;20248;-70
2023/12/30 02:06:27;;;;;;;9.87;1.23;;;;;;;;;;5009577;28;20230;-70
2023/12/30 02:08:53;;;;;;;3.30;1.23;;;;;;;;;;5009138;28;20208;-70
2023/12/30 02:11:18;;;;;;;3.07;1.63;;;;;;;;;;4999333;28;20194;-70
2023/12/30 02:13:44;;;;;;;6.30;1.47;;;;;;;;;;4991052;28;20225;-70
2023/12/30 02:16:09;;;;;;;7.23;1.67;;;;;;;;;;4988655;28;20265;-69
2023/12/30 02:18:34;;;;;;;5.57;1.20;;;;;;;;;;4991783;28;20187;-70
2023/12/30 02:20:59;;;;;;;3.83;1.07;;;;;;;;;;4988354;28;20191;-70
2023/12/30 02:23:25;;;;;;;9.70;1.30;;;;;;;;;;4989697;28;20206;-70
2023/12/30 02:25:50;;;;;;;4.93;1.10;;;;;;;;;;4993331;28;20222;-70
2023/12/30 02:28:16;;;;;;;4.23;0.73;;;;;;;;;;4989177;28;20195;-69
2023/12/30 02:30:41;;;;;;;3.43;1.40;;;;;;;;;;4989983;28;20206;-69
2023/12/30 02:33:06;;;;;;;5.90;1.43;;;;;;;;;;4990505;28;20213;-69
2023/12/30 02:35:31;;;;;;;4.70;1.20;;;;;;;;;;4992837;28;20266;-69
2023/12/30 02:37:57;;;;;;;4.53;1.00;;;;;;;;;;4990063;28;20175;-70
2023/12/30 02:40:22;;;;;;;9.50;1.53;;;;;;;;;;5000802;28;20560;-70
2023/12/30 02:42:47;;;;;;;3.30;1.30;;;;;;;;;;4993508;28;20206;-69
2023/12/30 02:45:12;;;;;;;11.10;1.57;;;;;;;;;;4989411;28;20183;-70
2023/12/30 02:47:38;;;;;;;7.03;1.17;;;;;;;;;;4991870;28;20189;-69
2023/12/30 02:50:03;;;;;;;4.60;1.07;;;;;;;;;;4988733;28;20675;-70
2023/12/30 02:52:30;;;;;;;9.07;1.20;;;;;;;;;;4988202;28;20595;-69
2023/12/30 02:54:56;;;;;;;5.20;1.20;;;;;;;;;;4992498;28;20191;-70
2023/12/30 02:57:23;;;;;;;9.33;1.20;;;;;;;;;;4984718;28;20194;-68
2023/12/30 02:59:48;;;;;;;6.93;1.33;;;;;;;;;;4991984;28;20218;-69
2023/12/30 03:02:13;;;;;;;5.47;1.40;;;;;;;;;;4990691;28;20254;-68
2023/12/30 03:04:38;;;;;;;4.33;1.27;;;;;;;;;;4991751;28;20712;-69
2023/12/30 03:07:04;;;;;;;5.97;1.00;;;;;;;;;;4988324;28;20225;-69
2023/12/30 03:09:29;;;;;;;4.73;1.30;;;;;;;;;;4988886;28;20210;-67
2023/12/30 03:11:54;;;;;;;7.73;1.40;;;;;;;;;;4989459;28;20198;-68
2023/12/30 03:14:19;;;;;;;6.30;1.20;;;;;;;;;;4988584;28;20801;-68
2023/12/30 03:16:44;;;;;;;7.37;1.57;;;;;;;;;;4989202;28;20210;-68
2023/12/30 03:19:09;;;;;;;4.00;1.37;;;;;;;;;;4989468;28;20873;-69
2023/12/30 03:21:35;;;;;;;9.80;2.20;;;;;;;;;;4989783;28;20241;-69
2023/12/30 03:24:00;;;;;;;7.57;1.50;;;;;;;;;;4990470;28;20175;-67
2023/12/30 03:26:25;;;;;;;5.57;1.20;;;;;;;;;;4989087;28;20825;-68
2023/12/30 03:28:50;;;;;;;3.50;1.03;;;;;;;;;;4986173;28;21509;-68
2023/12/30 03:31:27;;;;;;;2.87;1.00;;;;;;;;;;4989431;28;20178;-68
2023/12/30 03:33:53;;;;;;;3.23;1.27;;;;;;;;;;4988145;28;20174;-70
2023/12/30 03:36:18;;;;;;;7.43;0.97;;;;;;;;;;4986420;28;20201;-68
2023/12/30 03:38:44;;;;;;;5.03;1.40;;;;;;;;;;4989905;28;20183;-69
2023/12/30 03:41:09;;;;;;;7.57;1.93;;;;;;;;;;5007795;28;20717;-69
2023/12/30 03:43:35;;;;;;;5.57;1.63;;;;;;;;;;4991613;28;20203;-67
2023/12/30 03:46:00;;;;;;;10.50;1.90;;;;;;;;;;4992445;28;20762;-68
2023/12/30 03:48:25;;;;;;;5.03;1.60;;;;;;;;;;4987567;28;20206;-69
2023/12/30 03:50:50;;;;;;;9.30;1.70;;;;;;;;;;4988412;28;20191;-69
2023/12/30 03:53:15;;;;;;;4.70;1.10;;;;;;;;;;4988503;28;20586;-68
2023/12/30 03:55:41;;;;;;;8.20;1.60;;;;;;;;;;4990682;28;20179;-69
2023/12/30 03:58:06;;;;;;;5.40;1.23;;;;;;;;;;4987355;28;20310;-68
2023/12/30 04:00:31;;;;;;;7.33;1.40;;;;;;;;;;4989363;28;20186;-69
2023/12/30 04:02:56;;;;;;;6.40;1.50;;;;;;;;;;4986112;28;20578;-70
2023/12/30 04:05:22;;;;;;;4.60;1.43;;;;;;;;;;4988467;28;20266;-70
2023/12/30 04:07:48;;;;;;;8.70;1.63;;;;;;;;;;4988034;28;20930;-69
2023/12/30 04:10:14;;;;;;;9.30;1.93;;;;;;;;;;4988421;28;20306;-70
2023/12/30 04:12:40;;;;;;;4.73;0.87;;;;;;;;;;4993217;28;20851;-69
2023/12/30 04:15:06;;;;;;;5.93;1.30;;;;;;;;;;4990313;28;20182;-69
2023/12/30 04:17:32;;;;;;;5.10;1.50;;;;;;;;;;4991950;28;20183;-68
2023/12/30 04:19:57;;;;;;;5.73;1.43;;;;;;;;;;4989976;28;20712;-68
2023/12/30 04:22:25;;;;;;;7.10;1.70;;;;;;;;;;4992049;28;20522;-70
2023/12/30 04:24:51;;;;;;;6.43;1.43;;;;;;;;;;4995974;28;20199;-68
2023/12/30 04:27:16;;;;;;;5.90;1.30;;;;;;;;;;4990414;28;20277;-68
2023/12/30 04:29:42;;;;;;;8.97;1.63;;;;;;;;;;4994019;28;20302;-69
2023/12/30 04:32:07;;;;;;;8.27;1.10;;;;;;;;;;5005950;28;20268;-68
2023/12/30 04:34:32;;;;;;;5.40;1.83;;;;;;;;;;4991095;28;20557;-69
2023/12/30 04:36:57;;;;;;;6.43;2.57;;;;;;;;;;4992304;28;21386;-68
2023/12/30 04:39:22;;;;;;;6.97;1.53;;;;;;;;;;4992399;28;20323;-68
2023/12/30 04:41:48;;;;;;;9.53;1.50;;;;;;;;;;5008134;28;20199;-68
2023/12/30 04:44:13;;;;;;;7.13;1.00;;;;;;;;;;5012690;28;20659;-68
2023/12/30 04:46:39;;;;;;;12.93;1.73;;;;;;;;;;5012139;28;20712;-69
2023/12/30 04:49:04;;;;;;;5.83;2.00;;;;;;;;;;5011342;28;20198;-68
2023/12/30 04:51:29;;;;;;;6.73;1.90;;;;;;;;;;5007298;28;20202;-69
2023/12/30 04:53:56;;;;;;;6.30;1.73;;;;;;;;;;5012310;28;20620;-69
2023/12/30 04:56:21;;;;;;;4.67;1.13;;;;;;;;;;5013437;28;20237;-69
2023/12/30 04:58:46;;;;;;;7.17;1.80;;;;;;;;;;4989835;28;20710;-67
2023/12/30 05:01:12;;;;;;;7.77;1.40;;;;;;;;;;4991887;28;20203;-71
2023/12/30 05:03:37;;;;;;;7.30;1.60;;;;;;;;;;4990512;28;20316;-68
2023/12/30 05:06:02;;;;;;;4.23;1.13;;;;;;;;;;4990263;28;20194;-69
2023/12/30 05:08:31;;;;;;;5.57;1.40;;;;;;;;;;4992926;28;20207;-67
2023/12/30 05:10:56;;;;;;;10.67;1.60;;;;;;;;;;4995314;28;21068;-69
2023/12/30 05:13:21;;;;;;;5.73;1.53;;;;;;;;;;4990618;28;20203;-69
2023/12/30 05:15:48;;;;;;;9.87;1.40;;;;;;;;;;4990535;28;20980;-69
2023/12/30 05:18:14;;;;;;;9.77;1.23;;;;;;;;;;4989238;28;20195;-69
2023/12/30 05:20:39;;;;;;;9.57;1.13;;;;;;;;;;4991822;28;20186;-68
2023/12/30 05:23:04;;;;;;;3.00;1.00;;;;;;;;;;4990560;28;21217;-69
2023/12/30 05:25:29;;;;;;;8.07;1.40;;;;;;;;;;5007235;28;20551;-69
2023/12/30 05:27:54;;;;;;;3.90;1.23;;;;;;;;;;4991096;28;20238;-69
2023/12/30 05:30:20;;;;;;;9.00;1.30;;;;;;;;;;4992039;28;20190;-69
2023/12/30 05:32:45;;;;;;;6.30;1.00;;;;;;;;;;4988472;28;20220;-70
2023/12/30 05:35:10;;;;;;;10.57;1.70;;;;;;;;;;4994868;28;20536;-69
2023/12/30 05:37:36;;;;;;;10.37;2.10;;;;;;;;;;4991722;28;20181;-69
2023/12/30 05:40:01;;;;;;;14.90;1.80;;;;;;;;;;4991435;28;20182;-70
2023/12/30 05:42:26;;;;;;;5.53;1.50;;;;;;;;;;4991088;28;20203;-68
2023/12/30 05:44:51;;;;;;;6.50;1.23;;;;;;;;;;5004788;28;20183;-68
2023/12/30 05:47:16;;;;;;;8.13;1.50;;;;;;;;;;5009479;28;20182;-68
2023/12/30 05:49:42;;;;;;;9.00;2.13;;;;;;;;;;4989947;28;20209;-69
2023/12/30 05:52:07;;;;;;;14.10;1.87;;;;;;;;;;4994209;28;20678;-68
2023/12/30 05:54:33;;;;;;;5.63;1.80;;;;;;;;;;4992876;28;20191;-72
2023/12/30 05:57:00;;;;;;;5.10;1.03;;;;;;;;;;4989427;28;20187;-72
2023/12/30 05:59:25;;;;;;;6.57;2.20;;;;;;;;;;4994636;28;20197;-71
2023/12/30 06:01:50;;;;;;;7.57;1.60;;;;;;;;;;4992524;28;20669;-72
2023/12/30 06:04:15;;;;;;;12.87;1.63;;;;;;;;;;4991047;28;20262;-71
2023/12/30 06:06:42;;;;;;;7.57;1.80;;;;;;;;;;4991052;28;20185;-72
2023/12/30 06:09:07;;;;;;;8.33;2.67;;;;;;;;;;4991057;28;20214;-70
2023/12/30 06:11:32;;;;;;;7.67;1.63;;;;;;;;;;4990910;28;20186;-71
2023/12/30 06:13:58;;;;;;;9.70;3.13;;;;;;;;;;4991155;28;20236;-70
2023/12/30 06:16:23;;;;;;;8.03;2.77;;;;;;;;;;4990747;28;20187;-71
2023/12/30 06:18:48;;;;;;;12.63;1.70;;;;;;;;;;4991733;28;21211;-70
2023/12/30 06:21:13;;;;;;;14.93;2.13;;;;;;;;;;4993685;28;20183;-71
2023/12/30 06:23:39;;;;;;;9.13;1.37;;;;;;;;;;5006998;28;20202;-70
2023/12/30 06:26:04;;;;;;;8.23;1.60;;;;;;;;;;4992350;28;20187;-71
2023/12/30 06:28:30;;;;;;;8.30;1.50;;;;;;;;;;4992604;28;20206;-71
2023/12/30 06:30:55;;;;;;;4.67;1.43;;;;;;;;;;5007355;28;20205;-70
2023/12/30 06:33:21;;;;;;;5.00;1.93;;;;;;;;;;4990033;28;20318;-71
2023/12/30 06:35:46;;;;;;;4.73;1.17;;;;;;;;;;4994004;28;20186;-72
2023/12/30 06:38:14;;;;;;;8.70;1.97;;;;;;;;;;4989996;28;20225;-73
2023/12/30 06:40:41;;;;;;;10.90;1.50;;;;;;;;;;4989954;28;20240;-72
2023/12/30 06:43:06;;;;;;;5.53;2.20;;;;;;;;;;4989086;28;20199;-72
2023/12/30 06:45:32;;;;;;;9.20;1.30;;;;;;;;;;5009504;28;20284;-73
2023/12/30 06:47:57;;;;;;;6.77;1.37;;;;;;;;;;5009741;28;20197;-72
2023/12/30 06:50:22;;;;;;;3.67;1.13;;;;;;;;;;5008538;28;20325;-72
2023/12/30 06:52:48;;;;;;;9.60;1.73;;;;;;;;;;4998852;28;20915;-71
2023/12/30 06:55:14;;;;;;;4.57;1.20;;;;;;;;;;4991998;28;20186;-72
2023/12/30 06:57:40;;;;;;;9.53;2.10;;;;;;;;;;4989919;28;20713;-71
2023/12/30 07:00:06;;;;;;;10.33;1.60;;;;;;;;;;4990892;28;20183;-71
2023/12/30 07:02:31;;;;;;;6.33;2.10;;;;;;;;;;4989106;28;20281;-70
2023/12/30 07:04:56;;;;;;;5.07;1.43;;;;;;;;;;4990313;28;20279;-71
2023/12/30 07:07:22;;;;;;;5.27;1.10;;;;;;;;;;4990571;28;20187;-71
2023/12/30 07:09:47;;;;;;;9.13;1.40;;;;;;;;;;4989803;28;20637;-71
2023/12/30 07:12:13;;;;;;;7.53;1.47;;;;;;;;;;4990302;28;20230;-71
2023/12/30 07:14:38;;;;;;;7.17;1.70;;;;;;;;;;4990362;28;20190;-72
2023/12/30 07:17:03;;;;;;;9.00;1.63;;;;;;;;;;4992089;28;20191;-71
2023/12/30 07:19:29;;;;;;;8.33;1.63;;;;;;;;;;4989997;28;20214;-71
2023/12/30 07:21:54;;;;;;;13.60;2.27;;;;;;;;;;4989795;28;20207;-71
2023/12/30 07:24:19;;;;;;;18.57;1.93;;;;;;;;;;4991546;28;20214;-71
2023/12/30 07:26:44;;;;;;;6.57;1.50;;;;;;;;;;4989387;28;20202;-72
2023/12/30 07:29:10;;;;;;;8.07;1.87;;;;;;;;;;4991347;28;20203;-71
2023/12/30 07:31:35;;;;;;;5.90;1.77;;;;;;;;;;4989542;28;20504;-71
2023/12/30 07:34:00;;;;;;;5.97;2.13;;;;;;;;;;4994322;28;20190;-72
2023/12/30 07:36:27;;;;;;;6.17;1.60;;;;;;;;;;5009173;28;20179;-70
2023/12/30 07:38:52;;;;;;;5.43;1.40;;;;;;;;;;4994160;28;20187;-71
2023/12/30 07:41:17;;;;;;;4.07;1.87;;;;;;;;;;4991609;28;20179;-72
2023/12/30 07:43:42;;;;;;;8.07;1.30;;;;;;;;;;4989589;28;20197;-72
2023/12/30 07:46:08;;;;;;;10.43;2.23;;;;;;;;;;4991657;28;20539;-71
2023/12/30 07:48:33;;;;;;;7.13;1.60;;;;;;;;;;4986018;28;20199;-72
2023/12/30 07:50:59;;;;;;;8.07;1.90;;;;;;;;;;4987544;28;20183;-72
2023/12/30 07:53:25;;;;;;;5.07;1.10;;;;;;;;;;4987026;28;20298;-72
2023/12/30 07:55:50;;;;;;;11.43;2.43;;;;;;;;;;4996733;28;20269;-72
2023/12/30 07:58:15;;;;;;;12.97;1.90;;;;;;;;;;4990172;28;20182;-71
2023/12/30 08:00:40;;;;;;;5.00;1.50;;;;;;;;;;4988817;28;20263;-73
2023/12/30 08:03:05;;;;;;;3.33;1.60;;;;;;;;;;5012267;22;20313;-67
2023/12/30 08:05:31;;;;;;;7.57;1.40;;;;;;;;;;5010282;28;20183;-68
2023/12/30 08:07:56;;;;;;;5.80;1.50;;;;;;;;;;5008230;28;20178;-69
2023/12/30 08:10:21;;;;;;;8.70;1.60;;;;;;;;;;5003993;28;20594;-67
2023/12/30 08:12:46;;;;;;;5.60;1.60;;;;;;;;;;5007487;28;20210;-69
2023/12/30 08:15:12;;;;;;;9.67;2.70;;;;;;;;;;5005692;28;20731;-67
2023/12/30 08:17:37;;;;;;;7.43;2.47;;;;;;;;;;5006203;28;20178;-67
2023/12/30 08:20:03;;;;;;;9.50;1.80;;;;;;;;;;5003951;28;20321;-67
2023/12/30 08:22:28;;;;;;;14.73;2.93;;;;;;;;;;4992233;28;20755;-66
2023/12/30 08:24:54;;;;;;;9.30;2.73;;;;;;;;;;5007555;28;20596;-66
2023/12/30 08:27:19;;;;;;;12.53;3.27;;;;;;;;;;5006595;28;20269;-66
2023/12/30 08:29:44;;;;;;;14.10;3.00;;;;;;;;;;5007176;28;20206;-68
2023/12/30 08:32:10;;;;;;;6.67;1.83;;;;;;;;;;5005016;28;20182;-68
2023/12/30 08:34:35;;;;;;;11.67;2.13;;;;;;;;;;4988074;28;20226;-66
2023/12/30 08:37:05;;;;;;;9.20;3.20;;;;;;;;;;5008389;28;20191;-67
2023/12/30 08:39:30;;;;;;;13.93;2.37;;;;;;;;;;5007098;28;20225;-68
2023/12/30 08:41:56;;;;;;;12.10;2.83;;;;;;;;;;5006388;28;20278;-68
2023/12/30 08:44:21;;;;;;;11.50;1.90;;;;;;;;;;5005379;28;20193;-67
2023/12/30 08:46:46;;;;;;;11.20;2.67;;;;;;;;;;5010768;28;20194;-67
2023/12/30 08:49:11;;;;;;;22.77;2.30;;;;;;;;;;5006614;28;20300;-68
2023/12/30 08:51:37;;;;;;;13.10;2.23;;;;;;;;;;5006483;28;20193;-66
2023/12/30 08:54:02;;;;;;;9.50;2.90;;;;;;;;;;5007555;28;20201;-67
2023/12/30 08:56:32;;;;;;;9.43;2.00;;;;;;;;;;5009189;28;20266;-67
2023/12/30 08:58:57;;;;;;;12.37;2.57;;;;;;;;;;5009578;28;20186;-68
2023/12/30 09:01:22;;;;;;;8.63;2.53;;;;;;;;;;5008530;28;20183;-66
2023/12/30 09:03:47;;;;;;;7.80;2.83;;;;;;;;;;5010178;28;20229;-68
2023/12/30 09:06:12;;;;;;;14.73;2.80;;;;;;;;;;5010469;28;21220;-67
2023/12/30 09:08:38;;;;;;;14.03;2.53;;;;;;;;;;5010058;28;20203;-67
2023/12/30 09:11:03;;;;;;;8.07;2.63;;;;;;;;;;5011057;28;20775;-68
2023/12/30 09:13:28;;;;;;;12.63;3.33;;;;;;;;;;5012366;28;20237;-67
2023/12/30 09:15:53;;;;;;;8.93;2.33;;;;;;;;;;5009884;28;20207;-67
2023/12/30 09:18:18;;;;;;;10.23;3.13;;;;;;;;;;5009967;28;20577;-66
2023/12/30 09:20:44;;;;;;;13.40;3.37;;;;;;;;;;5008594;28;20183;-67
2023/12/30 09:23:09;;;;;;;12.07;2.87;;;;;;;;;;4992210;28;20348;-68
2023/12/30 09:25:34;;;;;;;7.57;2.20;;;;;;;;;;4998479;28;20178;-66
2023/12/30 09:27:59;;;;;;;10.63;2.90;;;;;;;;;;5009205;28;20179;-67
2023/12/30 09:30:25;;;;;;;10.53;2.67;;;;;;;;;;4995159;28;20293;-68
2023/12/30 09:32:50;;;;;;;18.43;2.97;;;;;;;;;;5009453;28;20293;-68
2023/12/30 09:35:15;;;;;;;9.67;2.23;;;;;;;;;;5009648;28;20182;-67
2023/12/30 09:37:40;;;;;;;7.97;2.50;;;;;;;;;;4995359;28;20748;-68
2023/12/30 09:40:06;;;;;;;6.17;1.97;;;;;;;;;;5010296;28;20182;-67
2023/12/30 09:42:31;;;;;;;8.67;1.80;;;;;;;;;;4992818;28;20201;-68
2023/12/30 09:44:58;;;;;;;16.33;2.17;;;;;;;;;;4993478;28;20277;-67
2023/12/30 09:47:23;;;;;;;9.87;2.23;;;;;;;;;;5012853;28;20186;-67
2023/12/30 09:49:50;;;;;;;10.77;2.30;;;;;;;;;;5009830;28;20237;-68
2023/12/30 09:52:15;;;;;;;11.87;2.10;;;;;;;;;;4993597;28;20789;-66
2023/12/30 09:54:40;;;;;;;13.00;2.47;;;;;;;;;;5011138;28;20333;-68
2023/12/30 09:57:05;;;;;;;3.80;2.07;;;;;;;;;;5009908;28;20178;-68
2023/12/30 09:59:35;;;;;;;9.23;2.77;;;;;;;;;;5008066;28;20191;-67
2023/12/30 10:02:01;;;;;;;8.33;3.30;;;;;;;;;;4992447;28;20178;-66
2023/12/30 10:04:26;;;;;;;8.87;2.37;;;;;;;;;;5008706;28;21012;-68
2023/12/30 10:06:51;;;;;;;10.97;2.07;;;;;;;;;;5008783;28;20191;-68
2023/12/30 10:09:18;;;;;;;11.93;2.30;;;;;;;;;;5007224;28;20304;-67
2023/12/30 10:11:44;;;;;;;13.47;2.67;;;;;;;;;;5009434;28;20182;-67
2023/12/30 10:14:09;;;;;;;13.50;2.30;;;;;;;;;;4993695;28;20210;-68
2023/12/30 10:16:35;;;;;;;11.00;2.07;;;;;;;;;;5011033;28;20186;-68
2023/12/30 10:19:00;;;;;;;7.70;2.20;;;;;;;;;;5017861;28;20184;-67
2023/12/30 10:21:26;;;;;;;11.80;2.77;;;;;;;;;;5006056;28;20197;-66
2023/12/30 10:23:53;;;;;;;8.07;2.30;;;;;;;;;;5009141;28;20207;-68
2023/12/30 10:26:19;;;;;;;8.80;2.70;;;;;;;;;;5007845;28;20194;-67
2023/12/30 10:28:44;;;;;;;10.67;1.70;;;;;;;;;;5007334;28;20206;-68
2023/12/30 10:31:11;;;;;;;7.27;2.70;;;;;;;;;;5007217;28;20264;-67
2023/12/30 10:33:37;;;;;;;9.30;2.43;;;;;;;;;;5012311;28;20191;-68
2023/12/30 10:36:04;;;;;;;9.83;2.20;;;;;;;;;;5008081;28;20228;-68
2023/12/30 10:38:31;;;;;;;13.07;3.13;;;;;;;;;;5007092;28;20182;-68
2023/12/30 10:40:57;;;;;;;12.70;2.87;;;;;;;;;;5007654;28;20183;-67
2023/12/30 10:43:22;;;;;;;12.77;2.70;;;;;;;;;;5010264;28;20620;-68
2023/12/30 10:45:54;;;;;;;12.80;2.57;;;;;;;;;;4995549;28;20233;-68
2023/12/30 10:48:20;;;;;;;15.00;3.20;;;;;;;;;;5007069;28;20226;-67
2023/12/30 10:50:46;;;;;;;6.80;2.50;;;;;;;;;;5007083;28;20190;-67
2023/12/30 10:53:16;;;;;;;15.90;3.03;;;;;;;;;;5007318;28;20311;-67
2023/12/30 10:55:47;;;;;;;8.17;2.97;;;;;;;;;;5012649;28;20700;-67
2023/12/30 10:58:16;;;;;;;19.03;2.90;;;;;;;;;;5006615;28;20322;-68
2023/12/30 11:00:42;;;;;;;16.53;3.20;;;;;;;;;;5007923;28;20198;-68
2023/12/30 11:03:07;;;;;;;13.63;3.60;;;;;;;;;;5011443;28;20761;-68
2023/12/30 11:05:38;;;;;;;15.10;2.60;;;;;;;;;;5001942;28;20313;-67
2023/12/30 11:08:04;;;;;;;9.10;2.83;;;;;;;;;;5007826;28;20193;-67
2023/12/30 11:10:29;;;;;;;12.93;3.10;;;;;;;;;;5006604;28;20209;-67
2023/12/30 11:12:54;;;;;;;16.27;3.63;;;;;;;;;;5008278;28;20313;-68
2023/12/30 11:15:23;;;;;;;14.00;3.07;;;;;;;;;;5006558;28;20740;-69
2023/12/30 11:17:49;;;;;;;10.63;3.43;;;;;;;;;;5008679;28;20186;-67
2023/12/30 11:20:24;;;;;;;13.97;3.80;;;;;;;;;;4990454;28;20193;-67
2023/12/30 11:22:50;;;;;;;9.73;3.27;;;;;;;;;;5007836;28;21849;-68
2023/12/30 11:25:17;;;;;;;11.40;3.37;;;;;;;;;;5009054;28;20270;-67
2023/12/30 11:27:46;;;;;;;12.20;4.30;;;;;;;;;;5005651;28;20575;-68
2023/12/30 11:30:23;;;;;;;21.03;6.07;;;;;;;;;;5009614;28;20274;-68
2023/12/30 11:32:49;;;;;;;18.43;11.70;;;;;;;;;;4989401;28;20265;-68
2023/12/30 11:35:14;;;;;;;23.57;10.57;;;;;;;;;;5008977;28;20178;-68
2023/12/30 11:37:43;;;;;;;18.37;7.47;;;;;;;;;;5012827;28;20196;-68
2023/12/30 11:40:09;;;;;;;11.20;6.00;;;;;;;;;;5026131;28;20657;-68
2023/12/30 11:42:35;;;;;;;12.77;5.43;;;;;;;;;;5004722;28;20922;-68
2023/12/30 11:45:00;;;;;;;11.93;5.25;;;;;;;;;;4989754;28;20248;-67
2023/12/30 11:47:28;;;;;;;13.20;5.03;;;;;;;;;;5011278;28;20258;-67
2023/12/30 11:50:04;;;;;;;12.73;4.10;;;;;;;;;;4991829;28;20478;-68
2023/12/30 11:52:29;;;;;;;15.65;5.97;;;;;;;;;;5007475;28;20200;-67
2023/12/30 11:54:54;;;;;;;16.98;5.65;;;;;;;;;;5017546;28;20182;-68
2023/12/30 11:57:19;;;;;;;18.73;6.05;;;;;;;;;;5016960;28;20208;-68
2023/12/30 11:59:45;;;;;;;10.63;6.00;;;;;;;;;;5007007;28;20174;-67
2023/12/30 12:02:13;;;;;;;12.67;6.00;;;;;;;;;;5004909;28;20255;-68
2023/12/30 12:04:39;;;;;;;12.85;7.85;;;;;;;;;;4989114;28;20178;-68
2023/12/30 12:07:04;;;;;;;16.80;8.02;;;;;;;;;;5006543;28;20288;-68
2023/12/30 12:09:30;;;;;;;21.33;8.07;;;;;;;;;;4993829;28;20206;-68
2023/12/30 12:11:55;;;;;;;15.48;7.78;;;;;;;;;;5006716;28;20179;-68
2023/12/30 12:14:20;;;;;;;17.73;7.80;;;;;;;;;;5006973;28;20179;-69
2023/12/30 12:16:45;;;;;;;18.02;7.28;;;;;;;;;;5007443;28;20175;-68
2023/12/30 12:19:10;;;;;;;24.60;10.37;;;;;;;;;;5007893;28;20207;-67
2023/12/30 12:21:36;;;;;;;18.92;11.27;;;;;;;;;;5009042;28;20185;-68
2023/12/30 12:24:02;;;;;;;25.67;12.43;;;;;;;;;;5009448;28;20732;-68
2023/12/30 12:26:28;;;;;;;27.40;15.73;;;;;;;;;;5006727;28;20183;-68
2023/12/30 12:28:54;;;;;;;17.52;8.75;;;;;;;;;;5004560;28;20573;-68
2023/12/30 12:31:19;;;;;;;15.45;7.18;;;;;;;;;;5007881;28;20186;-67
2023/12/30 12:33:44;;;;;;;14.40;7.13;;;;;;;;;;5011708;28;20213;-68
2023/12/30 12:36:09;;;;;;;13.23;7.87;;;;;;;;;;5011305;28;20187;-66
2023/12/30 12:38:35;;;;;;;19.90;7.60;;;;;;;;;;5011343;28;20187;-67
2023/12/30 12:41:00;;;;;;;15.93;6.70;;;;;;;;;;5010739;28;20312;-68
2023/12/30 12:43:25;;;;;;;14.38;6.25;;;;;;;;;;5009490;28;20248;-67
2023/12/30 12:45:50;;;;;;;17.70;6.90;;;;;;;;;;5010921;28;20182;-67
2023/12/30 12:48:15;;;;;;;13.90;6.32;;;;;;;;;;4986166;28;20615;-68
2023/12/30 12:50:41;;;;;;;15.05;8.32;;;;;;;;;;5010879;28;20359;-66
2023/12/30 12:53:06;;;;;;;15.20;8.18;;;;;;;;;;5009609;28;20823;-68
2023/12/30 12:55:31;;;;;;;22.17;9.75;;;;;;;;;;4997928;28;21019;-67
2023/12/30 12:57:56;;;;;;;17.73;8.85;;;;;;;;;;5011487;28;20174;-69
2023/12/30 13:00:21;;;;;;;22.30;8.55;;;;;;;;;;5011637;28;20190;-68
2023/12/30 13:02:47;;;;;;;17.27;8.20;;;;;;;;;;5009471;28;20285;-68
2023/12/30 13:05:16;;;;;;;17.80;7.88;;;;;;;;;;5010558;28;20198;-69
2023/12/30 13:07:43;;;;;;;17.33;8.05;;;;;;;;;;4992173;28;20482;-67
2023/12/30 13:12:46;;;;;;;24.05;9.30;;;;;;;;;;5007738;28;20202;-67
2023/12/30 13:15:16;;;;;;;13.98;7.20;;;;;;;;;;5008762;28;20214;-66
2023/12/30 13:17:44;;;;;;;18.85;8.05;;;;;;;;;;5009397;28;20195;-67
2023/12/30 13:20:10;;;;;;;15.48;7.20;;;;;;;;;;5009691;28;20182;-66
2023/12/30 13:22:35;;;;;;;15.55;5.82;;;;;;;;;;5010039;28;20577;-68
2023/12/30 13:25:00;;;;;;;11.85;5.50;;;;;;;;;;5011470;28;20198;-67
2023/12/30 13:27:29;;;;;;;15.98;5.38;;;;;;;;;;5009235;28;20202;-68
2023/12/30 13:29:54;;;;;;;20.33;5.78;;;;;;;;;;5011485;28;20214;-67
2023/12/30 13:32:20;;;;;;;14.45;5.05;;;;;;;;;;5008896;28;20198;-67
2023/12/30 13:34:47;;;;;;;18.67;4.88;;;;;;;;;;5011352;28;20587;-67
2023/12/30 13:37:12;;;;;;;16.45;4.82;;;;;;;;;;5009172;28;20668;-68
2023/12/30 13:39:40;;;;;;;10.35;4.78;;;;;;;;;;5008408;28;20211;-68
2023/12/30 13:42:09;;;;;;;10.15;3.78;;;;;;;;;;4993552;28;20190;-67
2023/12/30 13:44:42;;;;;;;11.77;3.50;;;;;;;;;;5008092;28;20178;-67
2023/12/30 13:50:10;;;;;;;6.78;3.33;;;;;;;;;;5009355;28;22009;-68
2023/12/30 13:52:36;;;;;;;10.43;4.90;;;;;;;;;;5008695;28;20202;-67
2023/12/30 13:55:05;;;;;;;10.20;3.78;;;;;;;;;;5011515;28;20504;-67
2023/12/30 13:57:32;;;;;;;11.02;4.20;;;;;;;;;;5008211;28;20175;-67
2023/12/30 13:59:58;;;;;;;9.20;3.80;;;;;;;;;;4993131;28;20295;-66
2023/12/30 14:02:24;;;;;;;5.93;3.42;;;;;;;;;;5061664;22;20214;-69
2023/12/30 14:04:53;;;;;;;8.13;3.50;;;;;;;;;;5012096;28;20593;-70
2023/12/30 14:07:26;;;;;;;10.82;3.47;;;;;;;;;;5010349;28;20197;-70
2023/12/30 14:10:06;;;;;;;12.80;4.40;;;;;;;;;;5009864;28;20610;-70
2023/12/30 14:12:31;;;;;;;8.77;3.95;;;;;;;;;;5008965;28;20199;-69
2023/12/30 14:15:05;;;;;;;7.68;3.50;;;;;;;;;;4999681;28;20563;-70
2023/12/30 14:17:33;;;;;;;9.20;3.47;;;;;;;;;;4993639;28;20670;-71
2023/12/30 14:20:01;;;;;;;10.57;4.07;;;;;;;;;;5009215;28;20182;-70
2023/12/30 14:22:27;;;;;;;15.27;4.18;;;;;;;;;;5007271;28;20206;-70
2023/12/30 14:24:52;;;;;;;11.38;3.53;;;;;;;;;;4996295;28;20179;-67
2023/12/30 14:27:17;;;;;;;9.65;3.58;;;;;;;;;;5007874;28;20209;-68
2023/12/30 14:29:48;;;;;;;16.90;4.05;;;;;;;;;;4983400;28;20198;-69
2023/12/30 14:32:13;;;;;;;12.07;4.30;;;;;;;;;;5008791;28;20179;-70
2023/12/30 14:34:39;;;;;;;18.90;4.60;;;;;;;;;;5015150;28;20186;-68